sensor_id;sensor_type;location;lat;lon;timestamp;temperature;humidity
4697;DHT22;2362;50.780;0.292;2022-12-26T00:01:14;10.90;99.90
4697;DHT22;2362;50.780;0.292;2022-12-26T00:03:39;10.80;99.90
4697;DHT22;2362;50.780;0.292;2022-12-26T00:06:12;10.80;99.90
4697;DHT22;2362;50.780;0.292;2022-12-26T00:08:38;10.80;99.90
4697;DHT22;2362;50.780;0.292;2022-12-26T00:11:03;10.80;99.90
4697;DHT22;2362;50.780;0.292;2022-12-26T00:13:29;10.80;99.90
4697;DHT22;2362;50.780;0.292;2022-12-26T00:15:55;10.80;99.90
4697;DHT22;2362;50.780;0.292;2022-12-26T00:18:20;10.80;99.90
4697;DHT22;2362;50.780;0.292;2022-12-26T00:20:46;10.70;99.90
4697;DHT22;2362;50.780;0.292;2022-12-26T00:23:12;10.70;99.90
4697;DHT22;2362;50.780;0.292;2022-12-26T00:25:38;10.60;99.90
4697;DHT22;2362;50.780;0.292;2022-12-26T00:28:03;10.70;99.90
4697;DHT22;2362;50.780;0.292;2022-12-26T00:30:29;10.70;99.90
4697;DHT22;2362;50.780;0.292;2022-12-26T00:32:55;10.70;99.90
4697;DHT22;2362;50.780;0.292;2022-12-26T00:35:20;10.70;99.90
4697;DHT22;2362;50.780;0.292;2022-12-26T00:37:46;10.60;99.90
4697;DHT22;2362;50.780;0.292;2022-12-26T00:40:12;10.50;99.90
4697;DHT22;2362;50.780;0.292;2022-12-26T00:42:37;10.50;99.90
4697;DHT22;2362;50.780;0.292;2022-12-26T00:45:03;10.40;99.90
4697;DHT22;2362;50.780;0.292;2022-12-26T00:47:29;10.40;99.90
4697;DHT22;2362;50.780;0.292;2022-12-26T00:49:55;10.30;99.90
4697;DHT22;2362;50.780;0.292;2022-12-26T00:52:21;10.30;99.90
4697;DHT22;2362;50.780;0.292;2022-12-26T00:54:46;10.30;99.90
4697;DHT22;2362;50.780;0.292;2022-12-26T00:57:12;10.30;99.90
4697;DHT22;2362;50.780;0.292;2022-12-26T00:59:38;10.30;99.90
4697;DHT22;2362;50.780;0.292;2022-12-26T01:02:03;10.30;99.90
4697;DHT22;2362;50.780;0.292;2022-12-26T01:04:49;10.40;99.90
4697;DHT22;2362;50.780;0.292;2022-12-26T01:07:15;10.40;99.90
4697;DHT22;2362;50.780;0.292;2022-12-26T01:09:40;10.40;99.90
4697;DHT22;2362;50.780;0.292;2022-12-26T01:12:06;10.50;99.90
4697;DHT22;2362;50.780;0.292;2022-12-26T01:14:32;10.60;99.90
4697;DHT22;2362;50.780;0.292;2022-12-26T01:16:57;10.60;99.90
4697;DHT22;2362;50.780;0.292;2022-12-26T01:19:23;10.60;99.90
4697;DHT22;2362;50.780;0.292;2022-12-26T01:21:49;10.60;99.90
4697;DHT22;2362;50.780;0.292;2022-12-26T01:24:15;10.60;99.90
4697;DHT22;2362;50.780;0.292;2022-12-26T01:26:41;10.60;99.90
4697;DHT22;2362;50.780;0.292;2022-12-26T01:29:08;10.50;99.90
4697;DHT22;2362;50.780;0.292;2022-12-26T01:31:33;10.50;99.90
4697;DHT22;2362;50.780;0.292;2022-12-26T01:33:59;10.50;99.90
4697;DHT22;2362;50.780;0.292;2022-12-26T01:36:25;10.40;99.90
4697;DHT22;2362;50.780;0.292;2022-12-26T01:38:50;10.50;99.90
4697;DHT22;2362;50.780;0.292;2022-12-26T01:41:16;10.40;99.90
4697;DHT22;2362;50.780;0.292;2022-12-26T01:43:56;10.40;99.90
4697;DHT22;2362;50.780;0.292;2022-12-26T01:46:39;10.40;99.90
4697;DHT22;2362;50.780;0.292;2022-12-26T01:49:16;10.40;99.90
4697;DHT22;2362;50.780;0.292;2022-12-26T01:51:50;10.40;99.90
4697;DHT22;2362;50.780;0.292;2022-12-26T01:54:18;10.40;99.90
4697;DHT22;2362;50.780;0.292;2022-12-26T01:56:45;10.50;99.90
4697;DHT22;2362;50.780;0.292;2022-12-26T01:59:18;10.50;99.90
4697;DHT22;2362;50.780;0.292;2022-12-26T02:01:46;10.40;99.90
4697;DHT22;2362;50.780;0.292;2022-12-26T02:04:16;10.50;99.90
4697;DHT22;2362;50.780;0.292;2022-12-26T02:07:03;10.50;99.90
4697;DHT22;2362;50.780;0.292;2022-12-26T02:09:30;10.50;99.90
4697;DHT22;2362;50.780;0.292;2022-12-26T02:12:15;10.50;99.90
4697;DHT22;2362;50.780;0.292;2022-12-26T02:14:42;10.40;99.90
4697;DHT22;2362;50.780;0.292;2022-12-26T02:17:07;10.40;99.90
4697;DHT22;2362;50.780;0.292;2022-12-26T02:25:09;10.40;99.90
4697;DHT22;2362;50.780;0.292;2022-12-26T02:30:31;10.40;99.90
4697;DHT22;2362;50.780;0.292;2022-12-26T02:43:48;10.70;99.90
4697;DHT22;2362;50.780;0.292;2022-12-26T02:46:39;10.80;99.90
4697;DHT22;2362;50.780;0.292;2022-12-26T02:49:51;10.80;99.90
4697;DHT22;2362;50.780;0.292;2022-12-26T02:56:06;10.80;99.90
4697;DHT22;2362;50.780;0.292;2022-12-26T02:59:02;10.70;99.90
4697;DHT22;2362;50.780;0.292;2022-12-26T03:01:50;10.70;99.90
4697;DHT22;2362;50.780;0.292;2022-12-26T03:04:38;10.70;99.90
4697;DHT22;2362;50.780;0.292;2022-12-26T03:07:28;10.70;99.90
4697;DHT22;2362;50.780;0.292;2022-12-26T03:10:19;10.70;99.90
4697;DHT22;2362;50.780;0.292;2022-12-26T03:13:13;10.70;99.90
4697;DHT22;2362;50.780;0.292;2022-12-26T03:15:45;10.70;99.90
4697;DHT22;2362;50.780;0.292;2022-12-26T03:18:31;10.80;99.90
4697;DHT22;2362;50.780;0.292;2022-12-26T03:20:59;10.80;99.90
4697;DHT22;2362;50.780;0.292;2022-12-26T03:23:25;10.70;99.90
4697;DHT22;2362;50.780;0.292;2022-12-26T03:25:56;10.70;99.90
4697;DHT22;2362;50.780;0.292;2022-12-26T03:28:42;10.70;99.90
4697;DHT22;2362;50.780;0.292;2022-12-26T03:31:11;10.80;99.90
4697;DHT22;2362;50.780;0.292;2022-12-26T03:33:40;10.70;99.90
4697;DHT22;2362;50.780;0.292;2022-12-26T03:48:18;10.80;99.90
4697;DHT22;2362;50.780;0.292;2022-12-26T03:51:14;10.90;99.90
4697;DHT22;2362;50.780;0.292;2022-12-26T03:54:10;10.90;99.90
4697;DHT22;2362;50.780;0.292;2022-12-26T03:57:03;10.90;99.90
4697;DHT22;2362;50.780;0.292;2022-12-26T04:00:08;10.90;99.90
4697;DHT22;2362;50.780;0.292;2022-12-26T04:02:56;10.90;99.90
4697;DHT22;2362;50.780;0.292;2022-12-26T04:05:44;10.80;99.90
4697;DHT22;2362;50.780;0.292;2022-12-26T04:08:43;10.80;99.90
4697;DHT22;2362;50.780;0.292;2022-12-26T04:11:28;10.70;99.90
4697;DHT22;2362;50.780;0.292;2022-12-26T04:14:43;10.60;99.90
4697;DHT22;2362;50.780;0.292;2022-12-26T04:17:43;10.40;99.90
4697;DHT22;2362;50.780;0.292;2022-12-26T04:20:59;10.20;99.90
4697;DHT22;2362;50.780;0.292;2022-12-26T04:23:45;10.00;99.90
4697;DHT22;2362;50.780;0.292;2022-12-26T04:26:37;10.00;99.90
4697;DHT22;2362;50.780;0.292;2022-12-26T04:29:23;10.00;99.90
4697;DHT22;2362;50.780;0.292;2022-12-26T04:32:17;10.00;99.90
4697;DHT22;2362;50.780;0.292;2022-12-26T04:38:08;9.90;99.90
4697;DHT22;2362;50.780;0.292;2022-12-26T04:40:56;9.90;99.90
4697;DHT22;2362;50.780;0.292;2022-12-26T04:43:43;9.90;99.90
4697;DHT22;2362;50.780;0.292;2022-12-26T04:46:30;9.90;99.90
4697;DHT22;2362;50.780;0.292;2022-12-26T04:48:57;10.00;99.90
4697;DHT22;2362;50.780;0.292;2022-12-26T04:51:42;10.00;99.90
4697;DHT22;2362;50.780;0.292;2022-12-26T04:54:08;9.90;99.90
4697;DHT22;2362;50.780;0.292;2022-12-26T04:56:34;9.90;99.90
4697;DHT22;2362;50.780;0.292;2022-12-26T04:59:00;9.80;99.90
4697;DHT22;2362;50.780;0.292;2022-12-26T05:01:27;9.80;99.90
4697;DHT22;2362;50.780;0.292;2022-12-26T05:04:13;9.90;99.90
4697;DHT22;2362;50.780;0.292;2022-12-26T05:06:58;9.90;99.90
4697;DHT22;2362;50.780;0.292;2022-12-26T05:09:43;9.90;99.90
4697;DHT22;2362;50.780;0.292;2022-12-26T05:12:09;9.90;99.90
4697;DHT22;2362;50.780;0.292;2022-12-26T05:14:35;9.90;99.90
4697;DHT22;2362;50.780;0.292;2022-12-26T05:17:05;9.90;99.90
4697;DHT22;2362;50.780;0.292;2022-12-26T05:19:50;9.80;99.90
4697;DHT22;2362;50.780;0.292;2022-12-26T05:22:37;9.80;99.90
4697;DHT22;2362;50.780;0.292;2022-12-26T05:25:27;9.90;99.90
4697;DHT22;2362;50.780;0.292;2022-12-26T05:28:13;9.80;99.90
4697;DHT22;2362;50.780;0.292;2022-12-26T05:30:58;9.80;99.90
4697;DHT22;2362;50.780;0.292;2022-12-26T05:33:25;9.80;99.90
4697;DHT22;2362;50.780;0.292;2022-12-26T05:36:09;9.70;99.90
4697;DHT22;2362;50.780;0.292;2022-12-26T05:38:36;9.70;99.90
4697;DHT22;2362;50.780;0.292;2022-12-26T05:41:02;9.60;99.90
4697;DHT22;2362;50.780;0.292;2022-12-26T05:43:28;9.60;99.90
4697;DHT22;2362;50.780;0.292;2022-12-26T05:45:53;9.70;99.90
4697;DHT22;2362;50.780;0.292;2022-12-26T05:48:19;9.70;99.90
4697;DHT22;2362;50.780;0.292;2022-12-26T05:50:45;9.70;99.90
4697;DHT22;2362;50.780;0.292;2022-12-26T05:53:11;9.60;99.90
4697;DHT22;2362;50.780;0.292;2022-12-26T05:55:37;9.60;99.90
4697;DHT22;2362;50.780;0.292;2022-12-26T05:58:02;9.60;99.90
4697;DHT22;2362;50.780;0.292;2022-12-26T06:00:29;9.50;99.90
4697;DHT22;2362;50.780;0.292;2022-12-26T06:02:57;9.50;99.90
4697;DHT22;2362;50.780;0.292;2022-12-26T06:05:23;9.40;99.90
4697;DHT22;2362;50.780;0.292;2022-12-26T06:07:48;9.40;99.90
4697;DHT22;2362;50.780;0.292;2022-12-26T06:10:14;9.40;99.90
4697;DHT22;2362;50.780;0.292;2022-12-26T06:12:40;9.50;99.90
4697;DHT22;2362;50.780;0.292;2022-12-26T06:15:06;9.50;99.90
4697;DHT22;2362;50.780;0.292;2022-12-26T06:17:32;9.40;99.90
4697;DHT22;2362;50.780;0.292;2022-12-26T06:19:58;9.40;99.90
4697;DHT22;2362;50.780;0.292;2022-12-26T06:22:23;9.40;99.90
4697;DHT22;2362;50.780;0.292;2022-12-26T06:24:49;9.40;99.90
4697;DHT22;2362;50.780;0.292;2022-12-26T06:27:15;9.40;99.90
4697;DHT22;2362;50.780;0.292;2022-12-26T06:29:40;9.40;99.90
4697;DHT22;2362;50.780;0.292;2022-12-26T06:32:06;9.30;99.90
4697;DHT22;2362;50.780;0.292;2022-12-26T06:34:32;9.30;99.90
4697;DHT22;2362;50.780;0.292;2022-12-26T06:36:58;9.20;99.90
4697;DHT22;2362;50.780;0.292;2022-12-26T06:39:24;9.20;99.90
4697;DHT22;2362;50.780;0.292;2022-12-26T06:41:49;9.20;99.90
4697;DHT22;2362;50.780;0.292;2022-12-26T06:44:15;9.20;99.90
4697;DHT22;2362;50.780;0.292;2022-12-26T06:46:41;9.20;99.90
4697;DHT22;2362;50.780;0.292;2022-12-26T06:49:06;9.20;99.90
4697;DHT22;2362;50.780;0.292;2022-12-26T06:51:33;9.10;99.90
4697;DHT22;2362;50.780;0.292;2022-12-26T06:54:00;9.10;99.90
4697;DHT22;2362;50.780;0.292;2022-12-26T06:56:29;9.00;99.90
4697;DHT22;2362;50.780;0.292;2022-12-26T06:59:00;8.90;99.90
4697;DHT22;2362;50.780;0.292;2022-12-26T07:01:28;8.90;99.90
4697;DHT22;2362;50.780;0.292;2022-12-26T07:03:54;8.80;99.90
4697;DHT22;2362;50.780;0.292;2022-12-26T07:08:50;8.70;99.90
4697;DHT22;2362;50.780;0.292;2022-12-26T07:11:19;8.70;99.90
4697;DHT22;2362;50.780;0.292;2022-12-26T07:13:45;8.60;99.90
4697;DHT22;2362;50.780;0.292;2022-12-26T07:16:11;8.70;99.90
4697;DHT22;2362;50.780;0.292;2022-12-26T07:18:37;8.60;99.90
4697;DHT22;2362;50.780;0.292;2022-12-26T07:21:07;8.60;99.90
4697;DHT22;2362;50.780;0.292;2022-12-26T07:23:34;8.60;99.90
4697;DHT22;2362;50.780;0.292;2022-12-26T07:26:00;8.60;99.90
4697;DHT22;2362;50.780;0.292;2022-12-26T07:28:26;8.60;99.90
4697;DHT22;2362;50.780;0.292;2022-12-26T07:30:52;8.60;99.90
4697;DHT22;2362;50.780;0.292;2022-12-26T07:33:17;8.60;99.90
4697;DHT22;2362;50.780;0.292;2022-12-26T07:35:44;8.50;99.90
4697;DHT22;2362;50.780;0.292;2022-12-26T07:38:10;8.50;99.90
4697;DHT22;2362;50.780;0.292;2022-12-26T07:40:36;8.50;99.90
4697;DHT22;2362;50.780;0.292;2022-12-26T07:43:02;8.50;99.90
4697;DHT22;2362;50.780;0.292;2022-12-26T07:45:28;8.50;99.90
4697;DHT22;2362;50.780;0.292;2022-12-26T07:47:55;8.40;99.90
4697;DHT22;2362;50.780;0.292;2022-12-26T07:50:22;8.40;99.90
4697;DHT22;2362;50.780;0.292;2022-12-26T07:52:48;8.30;99.90
4697;DHT22;2362;50.780;0.292;2022-12-26T07:55:14;8.30;99.90
4697;DHT22;2362;50.780;0.292;2022-12-26T07:57:40;8.30;99.90
4697;DHT22;2362;50.780;0.292;2022-12-26T08:00:06;8.30;99.90
4697;DHT22;2362;50.780;0.292;2022-12-26T08:02:32;8.20;99.90
4697;DHT22;2362;50.780;0.292;2022-12-26T08:04:58;8.20;99.90
4697;DHT22;2362;50.780;0.292;2022-12-26T08:07:23;8.20;99.90
4697;DHT22;2362;50.780;0.292;2022-12-26T08:09:49;8.10;99.90
4697;DHT22;2362;50.780;0.292;2022-12-26T08:12:15;8.00;99.90
4697;DHT22;2362;50.780;0.292;2022-12-26T08:15:06;8.00;99.90
4697;DHT22;2362;50.780;0.292;2022-12-26T08:17:33;7.90;99.90
4697;DHT22;2362;50.780;0.292;2022-12-26T08:20:01;7.90;99.90
4697;DHT22;2362;50.780;0.292;2022-12-26T08:22:27;7.80;99.90
4697;DHT22;2362;50.780;0.292;2022-12-26T08:24:52;7.70;99.90
4697;DHT22;2362;50.780;0.292;2022-12-26T08:27:18;7.70;99.90
4697;DHT22;2362;50.780;0.292;2022-12-26T08:29:44;7.60;99.90
4697;DHT22;2362;50.780;0.292;2022-12-26T08:32:09;7.60;99.90
4697;DHT22;2362;50.780;0.292;2022-12-26T08:34:35;7.50;99.90
4697;DHT22;2362;50.780;0.292;2022-12-26T08:37:01;7.50;99.90
4697;DHT22;2362;50.780;0.292;2022-12-26T08:39:27;7.40;99.90
4697;DHT22;2362;50.780;0.292;2022-12-26T08:41:52;7.40;99.90
4697;DHT22;2362;50.780;0.292;2022-12-26T08:44:18;7.40;99.90
4697;DHT22;2362;50.780;0.292;2022-12-26T08:46:47;7.40;99.90
4697;DHT22;2362;50.780;0.292;2022-12-26T08:49:13;7.50;99.90
4697;DHT22;2362;50.780;0.292;2022-12-26T08:51:39;7.50;99.90
4697;DHT22;2362;50.780;0.292;2022-12-26T08:54:05;7.50;99.90
4697;DHT22;2362;50.780;0.292;2022-12-26T08:56:30;7.50;99.90
4697;DHT22;2362;50.780;0.292;2022-12-26T08:58:56;7.40;99.90
4697;DHT22;2362;50.780;0.292;2022-12-26T09:01:25;7.40;99.90
4697;DHT22;2362;50.780;0.292;2022-12-26T09:03:53;7.40;99.90
4697;DHT22;2362;50.780;0.292;2022-12-26T09:06:19;7.30;99.90
4697;DHT22;2362;50.780;0.292;2022-12-26T09:08:45;7.30;99.90
4697;DHT22;2362;50.780;0.292;2022-12-26T09:11:13;7.20;99.90
4697;DHT22;2362;50.780;0.292;2022-12-26T09:13:40;7.10;99.90
4697;DHT22;2362;50.780;0.292;2022-12-26T09:16:12;7.00;99.90
4697;DHT22;2362;50.780;0.292;2022-12-26T09:18:41;6.90;99.90
4697;DHT22;2362;50.780;0.292;2022-12-26T09:21:08;6.90;99.90
4697;DHT22;2362;50.780;0.292;2022-12-26T09:23:35;6.80;99.90
4697;DHT22;2362;50.780;0.292;2022-12-26T09:26:07;6.80;99.90
4697;DHT22;2362;50.780;0.292;2022-12-26T09:28:33;6.70;99.90
4697;DHT22;2362;50.780;0.292;2022-12-26T09:31:01;6.70;99.90
4697;DHT22;2362;50.780;0.292;2022-12-26T09:33:29;6.60;99.90
4697;DHT22;2362;50.780;0.292;2022-12-26T09:35:54;6.60;99.90
4697;DHT22;2362;50.780;0.292;2022-12-26T09:38:21;6.50;99.90
4697;DHT22;2362;50.780;0.292;2022-12-26T09:43:42;6.40;99.90
4697;DHT22;2362;50.780;0.292;2022-12-26T09:46:43;6.30;99.90
4697;DHT22;2362;50.780;0.292;2022-12-26T09:49:16;6.20;99.90
4697;DHT22;2362;50.780;0.292;2022-12-26T09:51:47;6.10;99.90
4697;DHT22;2362;50.780;0.292;2022-12-26T09:54:20;6.10;99.90
4697;DHT22;2362;50.780;0.292;2022-12-26T09:56:50;6.10;99.90
4697;DHT22;2362;50.780;0.292;2022-12-26T09:59:18;6.20;99.90
4697;DHT22;2362;50.780;0.292;2022-12-26T10:01:46;6.30;99.90
4697;DHT22;2362;50.780;0.292;2022-12-26T10:04:22;6.40;99.90
4697;DHT22;2362;50.780;0.292;2022-12-26T10:19:48;6.80;99.90
4697;DHT22;2362;50.780;0.292;2022-12-26T10:24:45;7.00;99.90
4697;DHT22;2362;50.780;0.292;2022-12-26T10:27:15;7.10;99.90
4697;DHT22;2362;50.780;0.292;2022-12-26T10:29:54;7.30;99.90
4697;DHT22;2362;50.780;0.292;2022-12-26T10:34:49;7.50;99.90
4697;DHT22;2362;50.780;0.292;2022-12-26T10:37:34;7.50;99.90
4697;DHT22;2362;50.780;0.292;2022-12-26T10:40:24;7.50;99.90
4697;DHT22;2362;50.780;0.292;2022-12-26T10:42:58;7.50;99.90
4697;DHT22;2362;50.780;0.292;2022-12-26T10:48:28;7.60;99.90
4697;DHT22;2362;50.780;0.292;2022-12-26T10:51:19;7.60;99.90
4697;DHT22;2362;50.780;0.292;2022-12-26T10:54:14;7.70;99.90
4697;DHT22;2362;50.780;0.292;2022-12-26T10:57:08;7.70;99.90
4697;DHT22;2362;50.780;0.292;2022-12-26T10:59:46;7.70;99.90
4697;DHT22;2362;50.780;0.292;2022-12-26T11:02:21;7.70;99.90
4697;DHT22;2362;50.780;0.292;2022-12-26T11:05:22;7.60;99.90
4697;DHT22;2362;50.780;0.292;2022-12-26T11:07:56;7.60;99.90
4697;DHT22;2362;50.780;0.292;2022-12-26T11:10:29;7.60;99.90
4697;DHT22;2362;50.780;0.292;2022-12-26T11:12:59;7.60;99.90
4697;DHT22;2362;50.780;0.292;2022-12-26T11:15:30;7.60;99.90
4697;DHT22;2362;50.780;0.292;2022-12-26T11:20:47;7.60;99.90
4697;DHT22;2362;50.780;0.292;2022-12-26T11:23:22;7.60;99.90
4697;DHT22;2362;50.780;0.292;2022-12-26T11:25:54;7.60;99.90
4697;DHT22;2362;50.780;0.292;2022-12-26T11:28:29;7.70;99.90
4697;DHT22;2362;50.780;0.292;2022-12-26T11:30:56;7.70;99.90
4697;DHT22;2362;50.780;0.292;2022-12-26T11:33:38;7.80;99.90
4697;DHT22;2362;50.780;0.292;2022-12-26T11:39:06;8.00;99.90
4697;DHT22;2362;50.780;0.292;2022-12-26T11:41:35;8.10;99.90
4697;DHT22;2362;50.780;0.292;2022-12-26T11:49:01;7.90;99.90
4697;DHT22;2362;50.780;0.292;2022-12-26T11:51:41;7.80;99.90
4697;DHT22;2362;50.780;0.292;2022-12-26T11:54:32;7.70;99.90
4697;DHT22;2362;50.780;0.292;2022-12-26T11:59:35;7.50;99.90
4697;DHT22;2362;50.780;0.292;2022-12-26T12:04:41;7.40;99.90
4697;DHT22;2362;50.780;0.292;2022-12-26T12:07:33;7.30;99.90
4697;DHT22;2362;50.780;0.292;2022-12-26T12:10:48;7.30;99.90
4697;DHT22;2362;50.780;0.292;2022-12-26T12:19:15;7.40;99.90
4697;DHT22;2362;50.780;0.292;2022-12-26T12:27:19;7.60;99.90
4697;DHT22;2362;50.780;0.292;2022-12-26T12:30:10;7.60;99.90
4697;DHT22;2362;50.780;0.292;2022-12-26T12:38:59;7.60;99.90
4697;DHT22;2362;50.780;0.292;2022-12-26T12:43:56;7.70;99.90
4697;DHT22;2362;50.780;0.292;2022-12-26T12:47:03;7.70;99.90
4697;DHT22;2362;50.780;0.292;2022-12-26T12:50:03;7.70;99.90
4697;DHT22;2362;50.780;0.292;2022-12-26T12:52:42;7.80;99.90
4697;DHT22;2362;50.780;0.292;2022-12-26T13:00:42;7.80;99.90
4697;DHT22;2362;50.780;0.292;2022-12-26T13:03:46;7.80;99.90
4697;DHT22;2362;50.780;0.292;2022-12-26T13:09:00;7.90;99.90
4697;DHT22;2362;50.780;0.292;2022-12-26T13:14:01;7.90;99.90
4697;DHT22;2362;50.780;0.292;2022-12-26T13:16:32;7.90;99.90
4697;DHT22;2362;50.780;0.292;2022-12-26T13:19:04;7.90;99.90
4697;DHT22;2362;50.780;0.292;2022-12-26T13:21:35;7.90;99.90
4697;DHT22;2362;50.780;0.292;2022-12-26T13:27:08;7.90;99.90
4697;DHT22;2362;50.780;0.292;2022-12-26T13:29:43;7.90;99.90
4697;DHT22;2362;50.780;0.292;2022-12-26T13:32:35;7.80;99.90
4697;DHT22;2362;50.780;0.292;2022-12-26T13:35:01;7.90;99.90
4697;DHT22;2362;50.780;0.292;2022-12-26T13:40:25;7.90;99.90
4697;DHT22;2362;50.780;0.292;2022-12-26T13:50:52;8.10;99.90
4697;DHT22;2362;50.780;0.292;2022-12-26T14:04:36;8.10;99.90
4697;DHT22;2362;50.780;0.292;2022-12-26T14:07:26;8.00;99.90
4697;DHT22;2362;50.780;0.292;2022-12-26T14:10:00;8.00;99.90
4697;DHT22;2362;50.780;0.292;2022-12-26T14:15:47;7.90;99.90
4697;DHT22;2362;50.780;0.292;2022-12-26T14:21:49;7.90;99.90
4697;DHT22;2362;50.780;0.292;2022-12-26T14:32:41;7.70;99.90
4697;DHT22;2362;50.780;0.292;2022-12-26T14:38:18;7.70;99.90
4697;DHT22;2362;50.780;0.292;2022-12-26T14:41:02;7.70;99.90
4697;DHT22;2362;50.780;0.292;2022-12-26T14:43:39;7.70;99.90
4697;DHT22;2362;50.780;0.292;2022-12-26T14:49:00;7.50;99.90
4697;DHT22;2362;50.780;0.292;2022-12-26T14:51:41;7.50;99.90
4697;DHT22;2362;50.780;0.292;2022-12-26T14:56:50;7.50;99.90
4697;DHT22;2362;50.780;0.292;2022-12-26T14:59:26;7.40;99.90
4697;DHT22;2362;50.780;0.292;2022-12-26T15:07:58;7.40;99.90
4697;DHT22;2362;50.780;0.292;2022-12-26T15:16:15;7.30;99.90
4697;DHT22;2362;50.780;0.292;2022-12-26T15:25:20;7.30;99.90
4697;DHT22;2362;50.780;0.292;2022-12-26T15:28:20;7.20;99.90
4697;DHT22;2362;50.780;0.292;2022-12-26T15:40:23;7.30;99.90
4697;DHT22;2362;50.780;0.292;2022-12-26T15:43:22;7.20;99.90
4697;DHT22;2362;50.780;0.292;2022-12-26T15:45:56;7.20;99.90
4697;DHT22;2362;50.780;0.292;2022-12-26T15:56:49;7.00;99.90
4697;DHT22;2362;50.780;0.292;2022-12-26T16:01:54;7.00;99.90
4697;DHT22;2362;50.780;0.292;2022-12-26T16:05:03;7.10;99.90
4697;DHT22;2362;50.780;0.292;2022-12-26T16:07:32;7.10;99.90
4697;DHT22;2362;50.780;0.292;2022-12-26T16:10:00;7.00;99.90
4697;DHT22;2362;50.780;0.292;2022-12-26T16:12:31;7.00;99.90
4697;DHT22;2362;50.780;0.292;2022-12-26T16:15:14;7.00;99.90
4697;DHT22;2362;50.780;0.292;2022-12-26T16:17:41;7.00;99.90
4697;DHT22;2362;50.780;0.292;2022-12-26T16:23:20;7.10;99.90
4697;DHT22;2362;50.780;0.292;2022-12-26T16:25:49;7.00;99.90
4697;DHT22;2362;50.780;0.292;2022-12-26T16:28:16;6.90;99.90
4697;DHT22;2362;50.780;0.292;2022-12-26T16:30:43;6.90;99.90
4697;DHT22;2362;50.780;0.292;2022-12-26T16:33:12;6.90;99.90
4697;DHT22;2362;50.780;0.292;2022-12-26T16:35:40;6.90;99.90
4697;DHT22;2362;50.780;0.292;2022-12-26T16:38:15;6.90;99.90
4697;DHT22;2362;50.780;0.292;2022-12-26T16:40:51;6.80;99.90
4697;DHT22;2362;50.780;0.292;2022-12-26T16:45:44;6.60;99.90
4697;DHT22;2362;50.780;0.292;2022-12-26T16:48:14;6.70;99.90
4697;DHT22;2362;50.780;0.292;2022-12-26T16:53:20;6.60;99.90
4697;DHT22;2362;50.780;0.292;2022-12-26T16:55:55;6.60;99.90
4697;DHT22;2362;50.780;0.292;2022-12-26T16:58:26;6.60;99.90
4697;DHT22;2362;50.780;0.292;2022-12-26T17:01:09;6.60;99.90
4697;DHT22;2362;50.780;0.292;2022-12-26T17:03:53;6.50;99.90
4697;DHT22;2362;50.780;0.292;2022-12-26T17:06:31;6.50;99.90
4697;DHT22;2362;50.780;0.292;2022-12-26T17:09:06;6.50;99.90
4697;DHT22;2362;50.780;0.292;2022-12-26T17:11:36;6.50;99.90
4697;DHT22;2362;50.780;0.292;2022-12-26T17:14:05;6.50;99.90
4697;DHT22;2362;50.780;0.292;2022-12-26T17:16:31;6.50;99.90
4697;DHT22;2362;50.780;0.292;2022-12-26T17:19:18;6.50;99.90
4697;DHT22;2362;50.780;0.292;2022-12-26T17:24:49;6.50;99.90
4697;DHT22;2362;50.780;0.292;2022-12-26T17:27:21;6.60;99.90
4697;DHT22;2362;50.780;0.292;2022-12-26T17:29:56;6.80;99.90
4697;DHT22;2362;50.780;0.292;2022-12-26T17:34:51;6.80;99.90
4697;DHT22;2362;50.780;0.292;2022-12-26T17:37:22;6.90;99.90
4697;DHT22;2362;50.780;0.292;2022-12-26T17:40:02;6.80;99.90
4697;DHT22;2362;50.780;0.292;2022-12-26T17:42:28;6.80;99.90
4697;DHT22;2362;50.780;0.292;2022-12-26T17:44:55;6.70;99.90
4697;DHT22;2362;50.780;0.292;2022-12-26T17:47:26;6.60;99.90
4697;DHT22;2362;50.780;0.292;2022-12-26T17:49:55;6.60;99.90
4697;DHT22;2362;50.780;0.292;2022-12-26T17:52:26;6.60;99.90
4697;DHT22;2362;50.780;0.292;2022-12-26T17:54:56;6.70;99.90
4697;DHT22;2362;50.780;0.292;2022-12-26T17:57:25;6.80;99.90
4697;DHT22;2362;50.780;0.292;2022-12-26T17:59:52;6.90;99.90
4697;DHT22;2362;50.780;0.292;2022-12-26T18:02:19;6.90;99.90
4697;DHT22;2362;50.780;0.292;2022-12-26T18:04:45;6.80;99.90
4697;DHT22;2362;50.780;0.292;2022-12-26T18:07:16;6.60;99.90
4697;DHT22;2362;50.780;0.292;2022-12-26T18:09:43;6.60;99.90
4697;DHT22;2362;50.780;0.292;2022-12-26T18:12:11;6.60;99.90
4697;DHT22;2362;50.780;0.292;2022-12-26T18:14:37;6.50;99.90
4697;DHT22;2362;50.780;0.292;2022-12-26T18:17:04;6.40;99.90
4697;DHT22;2362;50.780;0.292;2022-12-26T18:19:29;6.40;99.90
4697;DHT22;2362;50.780;0.292;2022-12-26T18:21:55;6.40;99.90
4697;DHT22;2362;50.780;0.292;2022-12-26T18:24:21;6.50;99.90
4697;DHT22;2362;50.780;0.292;2022-12-26T18:26:47;6.50;99.90
4697;DHT22;2362;50.780;0.292;2022-12-26T18:29:14;6.60;99.90
4697;DHT22;2362;50.780;0.292;2022-12-26T18:31:39;6.60;99.90
4697;DHT22;2362;50.780;0.292;2022-12-26T18:34:05;6.60;99.90
4697;DHT22;2362;50.780;0.292;2022-12-26T18:36:33;6.60;99.90
4697;DHT22;2362;50.780;0.292;2022-12-26T18:39:00;6.60;99.90
4697;DHT22;2362;50.780;0.292;2022-12-26T18:41:26;6.70;99.90
4697;DHT22;2362;50.780;0.292;2022-12-26T18:43:52;6.80;99.90
4697;DHT22;2362;50.780;0.292;2022-12-26T18:46:24;6.70;99.90
4697;DHT22;2362;50.780;0.292;2022-12-26T18:48:50;6.70;99.90
4697;DHT22;2362;50.780;0.292;2022-12-26T18:51:18;6.70;99.90
4697;DHT22;2362;50.780;0.292;2022-12-26T18:53:44;6.80;99.90
4697;DHT22;2362;50.780;0.292;2022-12-26T18:56:15;6.80;99.90
4697;DHT22;2362;50.780;0.292;2022-12-26T18:58:43;6.70;99.90
4697;DHT22;2362;50.780;0.292;2022-12-26T19:01:12;6.70;99.90
4697;DHT22;2362;50.780;0.292;2022-12-26T19:03:39;6.80;99.90
4697;DHT22;2362;50.780;0.292;2022-12-26T19:06:05;6.70;99.90
4697;DHT22;2362;50.780;0.292;2022-12-26T19:08:31;6.50;99.90
4697;DHT22;2362;50.780;0.292;2022-12-26T19:10:57;6.50;99.90
4697;DHT22;2362;50.780;0.292;2022-12-26T19:13:23;6.50;99.90
4697;DHT22;2362;50.780;0.292;2022-12-26T19:15:49;6.50;99.90
4697;DHT22;2362;50.780;0.292;2022-12-26T19:18:14;6.50;99.90
4697;DHT22;2362;50.780;0.292;2022-12-26T19:20:42;6.60;99.90
4697;DHT22;2362;50.780;0.292;2022-12-26T19:23:08;6.60;99.90
4697;DHT22;2362;50.780;0.292;2022-12-26T19:25:34;6.50;99.90
4697;DHT22;2362;50.780;0.292;2022-12-26T19:28:00;6.50;99.90
4697;DHT22;2362;50.780;0.292;2022-12-26T19:30:27;6.40;99.90
4697;DHT22;2362;50.780;0.292;2022-12-26T19:32:53;6.40;99.90
4697;DHT22;2362;50.780;0.292;2022-12-26T19:35:18;6.30;99.90
4697;DHT22;2362;50.780;0.292;2022-12-26T19:37:45;6.30;99.90
4697;DHT22;2362;50.780;0.292;2022-12-26T19:40:12;6.30;99.90
4697;DHT22;2362;50.780;0.292;2022-12-26T19:42:39;6.20;99.90
4697;DHT22;2362;50.780;0.292;2022-12-26T19:45:07;6.30;99.90
4697;DHT22;2362;50.780;0.292;2022-12-26T19:47:33;6.30;99.90
4697;DHT22;2362;50.780;0.292;2022-12-26T19:49:59;6.20;99.90
4697;DHT22;2362;50.780;0.292;2022-12-26T19:52:25;6.10;99.90
4697;DHT22;2362;50.780;0.292;2022-12-26T19:54:51;6.00;99.90
4697;DHT22;2362;50.780;0.292;2022-12-26T19:57:17;6.10;99.90
4697;DHT22;2362;50.780;0.292;2022-12-26T19:59:44;6.10;99.90
4697;DHT22;2362;50.780;0.292;2022-12-26T20:02:11;6.10;99.90
4697;DHT22;2362;50.780;0.292;2022-12-26T20:04:37;6.30;99.90
4697;DHT22;2362;50.780;0.292;2022-12-26T20:07:03;6.30;99.90
4697;DHT22;2362;50.780;0.292;2022-12-26T20:09:29;6.20;99.90
4697;DHT22;2362;50.780;0.292;2022-12-26T20:11:55;6.20;99.90
4697;DHT22;2362;50.780;0.292;2022-12-26T20:14:23;6.20;99.90
4697;DHT22;2362;50.780;0.292;2022-12-26T20:16:53;6.20;99.90
4697;DHT22;2362;50.780;0.292;2022-12-26T20:19:19;6.30;99.90